createdAt,value
2018-03-03T00:00:48.402Z,75.43
2018-03-03T00:03:18.800Z,74.80
2018-03-03T00:05:48.541Z,80.30
2018-03-03T00:08:20.287Z,78.27
2018-03-03T00:10:49.962Z,74.90
2018-03-03T00:13:23.340Z,77.00
2018-03-03T00:15:53.322Z,73.80
2018-03-03T00:18:25.153Z,80.87
2018-03-03T00:20:55.240Z,72.40
2018-03-03T00:23:25.860Z,74.00
2018-03-03T00:25:56.265Z,75.13
2018-03-03T00:28:28.988Z,71.90
2018-03-03T00:30:58.827Z,71.27
2018-03-03T00:33:29.860Z,74.70
2018-03-03T00:35:59.686Z,75.73
2018-03-03T00:38:33.355Z,71.07
2018-03-03T00:41:04.640Z,70.87
2018-03-03T00:43:35.468Z,74.93
2018-03-03T00:46:06.002Z,76.00
2018-03-03T00:48:36.125Z,77.53
2018-03-03T00:51:06.929Z,70.80
2018-03-03T00:53:38.122Z,77.30
2018-03-03T00:56:08.444Z,80.47
2018-03-03T00:58:41.753Z,75.37
2018-03-03T01:01:11.515Z,77.83
2018-03-03T01:03:42.389Z,74.43
2018-03-03T01:06:12.233Z,74.93
2018-03-03T01:08:45.641Z,79.13
2018-03-03T01:11:15.523Z,80.50
2018-03-03T01:13:47.714Z,74.00
2018-03-03T01:16:17.992Z,73.43
2018-03-03T01:18:49.778Z,74.27
2018-03-03T01:21:19.947Z,73.63
2018-03-03T01:23:52.013Z,74.70
2018-03-03T01:26:22.899Z,80.63
2018-03-03T01:28:54.406Z,73.90
2018-03-03T01:31:25.710Z,73.03
2018-03-03T01:33:57.426Z,69.03
2018-03-03T01:36:27.879Z,75.73
2018-03-03T01:39:01.008Z,77.43
2018-03-03T01:41:31.001Z,72.30
2018-03-03T01:44:02.005Z,78.40
2018-03-03T01:46:32.069Z,75.70
2018-03-03T01:49:05.038Z,76.90
2018-03-03T01:51:44.402Z,76.73
2018-03-03T01:54:15.600Z,82.07
2018-03-03T01:56:46.404Z,71.43
2018-03-03T01:59:17.302Z,75.77
2018-03-03T02:01:47.539Z,78.43
2018-03-03T02:04:17.811Z,77.40
2018-03-03T02:06:48.055Z,79.03
2018-03-03T02:09:18.625Z,77.50
2018-03-03T02:11:48.730Z,73.27
2018-03-03T02:14:19.608Z,77.63
2018-03-03T02:16:49.979Z,75.47
2018-03-03T02:19:20.147Z,76.70
2018-03-03T02:21:50.610Z,73.20
2018-03-03T02:24:21.290Z,76.33
2018-03-03T02:26:52.234Z,67.10
2018-03-03T02:29:22.893Z,82.03
2018-03-03T02:31:54.305Z,77.73
2018-03-03T02:34:27.639Z,75.43
2018-03-03T02:36:57.809Z,81.80
2018-03-03T02:39:29.190Z,82.87
2018-03-03T02:41:59.565Z,76.57
2018-03-03T02:44:29.680Z,78.77
2018-03-03T02:47:00.214Z,76.00
2018-03-03T02:49:31.242Z,76.47
2018-03-03T02:52:01.775Z,79.20
2018-03-03T02:54:39.641Z,77.03
2018-03-03T02:57:09.794Z,84.03
2018-03-03T02:59:40.211Z,84.50
2018-03-03T03:02:11.022Z,82.73
2018-03-03T03:04:41.258Z,78.80
2018-03-03T03:07:11.421Z,76.33
2018-03-03T03:09:41.398Z,75.60
2018-03-03T03:12:12.409Z,78.43
2018-03-03T03:14:42.637Z,81.30
2018-03-03T03:17:12.804Z,81.93
2018-03-03T03:19:44.810Z,77.57
2018-03-03T03:22:15.159Z,92.70
2018-03-03T03:24:46.413Z,78.37
2018-03-03T03:27:16.774Z,77.67
2018-03-03T03:29:49.641Z,75.60
2018-03-03T03:32:20.482Z,82.80
2018-03-03T03:34:52.080Z,81.73
2018-03-03T03:37:22.218Z,76.67
2018-03-03T03:39:55.065Z,75.67
2018-03-03T03:42:25.858Z,81.50
2018-03-03T03:44:56.407Z,79.33
2018-03-03T03:47:26.916Z,75.50
2018-03-03T03:49:59.425Z,79.13
2018-03-03T03:52:29.803Z,71.90
2018-03-03T03:55:01.179Z,79.77
2018-03-03T03:57:31.774Z,76.97
2018-03-03T04:00:04.946Z,82.07
2018-03-03T04:02:34.604Z,78.57
2018-03-03T04:05:06.255Z,77.83
2018-03-03T04:07:37.102Z,81.87
2018-03-03T04:10:10.914Z,79.63
2018-03-03T04:12:41.151Z,81.57
2018-03-03T04:15:12.686Z,74.50
2018-03-03T04:17:43.581Z,74.57
2018-03-03T04:20:13.822Z,75.33
2018-03-03T04:22:44.242Z,78.13
2018-03-03T04:25:15.989Z,75.77
2018-03-03T04:27:46.246Z,72.70
2018-03-03T04:30:17.857Z,75.23
2018-03-03T04:32:48.005Z,85.33
2018-03-03T04:35:18.790Z,77.53
2018-03-03T04:37:48.809Z,75.63
2018-03-03T04:40:22.609Z,78.03
2018-03-03T04:42:52.192Z,77.40
2018-03-03T04:45:23.852Z,76.90
2018-03-03T04:47:53.923Z,77.73
2018-03-03T04:50:31.643Z,81.23
2018-03-03T04:53:02.894Z,83.97
2018-03-03T04:55:33.052Z,77.63
2018-03-03T04:58:03.301Z,71.23
2018-03-03T05:00:35.252Z,80.70
2018-03-03T05:03:05.337Z,73.80
2018-03-03T05:05:35.457Z,81.90
2018-03-03T05:08:05.970Z,81.90
2018-03-03T05:10:36.898Z,76.40
2018-03-03T05:13:07.309Z,80.97
2018-03-03T05:15:38.663Z,79.07
2018-03-03T05:18:09.032Z,76.83
2018-03-03T05:20:40.963Z,84.20
2018-03-03T05:23:11.283Z,78.83
2018-03-03T05:25:45.927Z,76.10
2018-03-03T05:28:16.863Z,79.27
2018-03-03T05:30:47.645Z,86.03
2018-03-03T05:33:18.705Z,79.57
2018-03-03T05:35:51.307Z,87.37
2018-03-03T05:38:21.560Z,78.20
2018-03-03T05:40:52.175Z,78.90
2018-03-03T05:43:23.444Z,76.23
2018-03-03T05:45:54.326Z,83.30
2018-03-03T05:48:25.447Z,81.87
2018-03-03T05:50:55.929Z,82.13
2018-03-03T05:53:25.837Z,80.73
2018-03-03T05:55:57.613Z,77.53
2018-03-03T05:58:29.606Z,79.07
2018-03-03T06:01:00.688Z,80.53
2018-03-03T06:03:31.285Z,86.67
2018-03-03T06:06:02.917Z,86.03
2018-03-03T06:08:33.279Z,79.77
2018-03-03T06:11:04.429Z,79.07
2018-03-03T06:13:35.060Z,74.80
2018-03-03T06:16:08.801Z,84.30
2018-03-03T06:18:39.111Z,75.87
2018-03-03T06:21:09.709Z,79.97
2018-03-03T06:23:39.993Z,81.53
2018-03-03T06:26:13.401Z,77.53
2018-03-03T06:28:44.408Z,72.83
2018-03-03T06:31:14.737Z,79.80
2018-03-03T06:33:45.252Z,86.50
2018-03-03T06:36:16.726Z,78.70
2018-03-03T06:38:47.112Z,84.03
2018-03-03T06:41:19.028Z,80.50
2018-03-03T06:43:49.202Z,82.20
2018-03-03T06:46:20.975Z,79.57
2018-03-03T06:48:51.603Z,85.53
2018-03-03T06:51:22.674Z,78.43
2018-03-03T06:53:52.735Z,75.97
2018-03-03T06:56:26.333Z,84.83
2018-03-03T06:58:56.853Z,80.17
2018-03-03T07:01:27.140Z,74.83
2018-03-03T07:03:57.346Z,81.33
2018-03-03T07:06:29.834Z,91.37
2018-03-03T07:08:59.823Z,78.57
2018-03-03T07:11:32.144Z,81.27
2018-03-03T07:14:03.335Z,78.20
2018-03-03T07:16:33.280Z,75.43
2018-03-03T07:19:03.296Z,80.17
2018-03-03T07:21:35.497Z,81.80
2018-03-03T07:24:05.463Z,81.80
2018-03-03T07:26:36.895Z,78.13
2018-03-03T07:29:06.969Z,79.77
2018-03-03T07:31:40.836Z,86.77
2018-03-03T07:34:11.240Z,81.43
2018-03-03T07:36:41.906Z,79.23
2018-03-03T07:39:11.676Z,85.03
2018-03-03T07:41:43.944Z,78.37
2018-03-03T07:44:13.711Z,82.77
2018-03-03T07:46:46.042Z,80.73
2018-03-03T07:49:16.956Z,83.10
2018-03-03T07:51:48.580Z,76.40
2018-03-03T07:54:18.397Z,81.97
2018-03-03T07:56:53.009Z,74.53
2018-03-03T07:59:23.856Z,78.20
2018-03-03T08:01:54.079Z,85.83
2018-03-03T08:04:24.098Z,80.00
2018-03-03T08:06:55.996Z,77.63
2018-03-03T08:09:25.833Z,79.80
2018-03-03T08:11:59.152Z,81.87
2018-03-03T08:14:30.069Z,80.50
2018-03-03T08:17:01.138Z,77.60
2018-03-03T08:19:31.012Z,75.90
2018-03-03T08:22:04.086Z,74.53
2018-03-03T08:24:35.122Z,76.60
2018-03-03T08:27:08.443Z,79.67
2018-03-03T08:29:39.040Z,76.07
2018-03-03T08:32:09.198Z,80.60
2018-03-03T08:34:39.730Z,72.90
2018-03-03T08:37:13.463Z,74.13
2018-03-03T08:39:43.177Z,85.30
2018-03-03T08:42:13.251Z,83.03
2018-03-03T08:44:44.247Z,80.53
2018-03-03T08:47:15.496Z,79.10
2018-03-03T08:49:45.256Z,80.67
2018-03-03T08:52:17.468Z,80.67
2018-03-03T08:54:47.243Z,79.70
2018-03-03T08:57:19.025Z,71.33
2018-03-03T08:59:49.053Z,73.93
2018-03-03T09:02:20.996Z,81.63
2018-03-03T09:04:51.302Z,83.13
2018-03-03T09:07:25.096Z,75.17
2018-03-03T09:09:54.975Z,80.63
2018-03-03T09:12:25.730Z,77.00
2018-03-03T09:14:55.659Z,89.90
2018-03-03T09:17:27.855Z,76.17
2018-03-03T09:19:57.472Z,70.57
2018-03-03T09:22:30.398Z,75.43
2018-03-03T09:25:00.138Z,67.70
2018-03-03T09:27:31.634Z,72.53
2018-03-03T09:30:01.443Z,67.87
2018-03-03T09:32:34.996Z,68.07
2018-03-03T09:35:05.111Z,71.40
2018-03-03T09:37:36.867Z,71.17
2018-03-03T09:40:06.775Z,69.67
2018-03-03T09:42:38.243Z,64.67
2018-03-03T09:45:08.010Z,68.20
2018-03-03T09:47:41.425Z,68.87
2018-03-03T09:50:11.526Z,62.27
2018-03-03T09:52:43.176Z,69.33
2018-03-03T09:55:13.669Z,67.17
2018-03-03T09:57:45.681Z,70.33
2018-03-03T10:00:15.595Z,68.03
2018-03-03T10:02:48.515Z,65.07
2018-03-03T10:05:18.622Z,60.17
2018-03-03T10:07:48.447Z,69.10
2018-03-03T10:10:18.180Z,68.50
2018-03-03T10:12:51.924Z,67.63
2018-03-03T10:15:21.753Z,68.33
2018-03-03T10:17:54.762Z,59.60
2018-03-03T10:20:25.422Z,61.47
2018-03-03T10:22:57.071Z,63.00
2018-03-03T10:25:26.839Z,60.57
2018-03-03T10:27:59.152Z,63.40
2018-03-03T10:30:28.749Z,63.90
2018-03-03T10:33:05.722Z,63.30
2018-03-03T10:35:35.669Z,67.37
2018-03-03T10:38:05.458Z,63.80
2018-03-03T10:40:35.201Z,59.63
2018-03-03T10:43:08.417Z,69.30
2018-03-03T10:45:38.857Z,58.40
2018-03-03T10:48:12.479Z,54.83
2018-03-03T10:50:43.420Z,61.67
2018-03-03T10:53:15.246Z,59.87
2018-03-03T10:55:44.942Z,56.27
2018-03-03T10:58:16.947Z,57.87
2018-03-03T11:00:50.912Z,56.40
2018-03-03T11:03:21.280Z,47.93
2018-03-03T11:05:52.893Z,49.17
2018-03-03T11:08:22.770Z,50.60
2018-03-03T11:10:52.504Z,46.27
2018-03-03T11:13:23.233Z,58.07
2018-03-03T11:15:54.045Z,56.50
2018-03-03T11:20:59.438Z,61.47
2018-03-03T11:23:30.032Z,58.63
2018-03-03T11:25:59.950Z,64.13
2018-03-03T11:28:31.157Z,60.97
2018-03-03T11:31:01.188Z,65.70
2018-03-03T11:33:30.803Z,60.87
2018-03-03T11:36:00.558Z,62.77
2018-03-03T11:38:31.638Z,63.33
2018-03-03T11:41:01.591Z,64.73
2018-03-03T11:43:34.840Z,64.13
2018-03-03T11:46:06.042Z,66.77
2018-03-03T11:48:36.088Z,75.70
2018-03-03T11:51:05.897Z,76.27
2018-03-03T11:53:37.714Z,67.87
2018-03-03T11:56:09.199Z,64.33
2018-03-03T11:58:50.651Z,65.73
2018-03-03T12:01:20.891Z,65.30
2018-03-03T12:03:50.622Z,68.37
2018-03-03T12:06:22.300Z,65.83
2018-03-03T12:08:52.661Z,71.93
2018-03-03T12:11:22.245Z,78.50
2018-03-03T12:13:51.924Z,69.27
2018-03-03T12:16:21.941Z,65.80
2018-03-03T12:18:51.655Z,73.10
2018-03-03T12:21:22.290Z,72.03
2018-03-03T12:23:55.268Z,66.60
2018-03-03T12:26:25.055Z,75.47
2018-03-03T12:28:59.801Z,69.40
2018-03-03T12:31:29.559Z,68.60
2018-03-03T12:34:00.218Z,65.90
2018-03-03T12:36:30.954Z,71.73
2018-03-03T12:39:00.739Z,77.57
2018-03-03T12:41:32.248Z,74.40
2018-03-03T12:44:02.790Z,69.10
2018-03-03T12:46:32.620Z,75.33
2018-03-03T12:49:04.158Z,65.93
2018-03-03T12:51:34.052Z,68.03
2018-03-03T12:54:07.745Z,72.13
2018-03-03T12:56:37.436Z,70.73
2018-03-03T12:59:10.224Z,75.33
2018-03-03T13:01:40.653Z,74.13
2018-03-03T13:04:14.308Z,74.07
2018-03-03T13:06:44.496Z,76.03
2018-03-03T13:09:15.329Z,78.93
2018-03-03T13:11:45.854Z,75.83
2018-03-03T13:14:16.676Z,77.97
2018-03-03T13:16:47.189Z,74.87
2018-03-03T13:19:20.727Z,76.77
2018-03-03T13:21:50.456Z,69.50
2018-03-03T13:24:20.331Z,75.20
2018-03-03T13:26:51.110Z,78.17
2018-03-03T13:29:21.964Z,71.63
2018-03-03T13:31:51.548Z,81.07
2018-03-03T13:34:25.381Z,81.30
2018-03-03T13:36:56.216Z,82.93
2018-03-03T13:39:26.559Z,84.97
2018-03-03T13:41:56.914Z,79.13
2018-03-03T13:44:28.378Z,78.10
2018-03-03T13:46:58.210Z,72.20
2018-03-03T13:49:31.260Z,78.03
2018-03-03T13:52:01.690Z,78.47
2018-03-03T13:54:34.711Z,75.43
2018-03-03T13:57:04.810Z,73.03
2018-03-03T13:59:34.849Z,72.07
2018-03-03T14:02:04.609Z,73.27
2018-03-03T14:04:37.463Z,76.80
2018-03-03T14:07:07.259Z,72.40
2018-03-03T14:09:40.388Z,68.90
2018-03-03T14:12:11.003Z,75.27
2018-03-03T14:14:41.356Z,70.00
2018-03-03T14:17:11.344Z,70.83
2018-03-03T14:19:44.906Z,73.53
2018-03-03T14:22:14.669Z,73.30
2018-03-03T14:24:52.134Z,68.10
2018-03-03T14:27:22.565Z,70.60
2018-03-03T14:29:53.039Z,70.40
2018-03-03T14:32:23.084Z,68.23
2018-03-03T14:34:52.862Z,76.83
2018-03-03T14:37:23.429Z,70.10
2018-03-03T14:39:54.374Z,73.60
2018-03-03T14:42:23.952Z,75.07
2018-03-03T14:44:55.154Z,71.80
2018-03-03T14:47:26.082Z,69.10
2018-03-03T14:49:57.386Z,73.07
2018-03-03T14:52:27.104Z,70.33
2018-03-03T14:55:01.124Z,72.17
2018-03-03T14:57:30.914Z,71.87
2018-03-03T15:00:02.983Z,72.33
2018-03-03T15:02:34.116Z,76.57
2018-03-03T15:05:06.101Z,75.67
2018-03-03T15:07:35.906Z,71.27
2018-03-03T15:10:08.358Z,75.97
2018-03-03T15:12:38.164Z,80.33
2018-03-03T15:15:10.938Z,74.40
2018-03-03T15:17:41.087Z,71.33
2018-03-03T15:20:13.401Z,73.53
2018-03-03T15:22:43.225Z,80.00
2018-03-03T15:25:16.157Z,74.53
2018-03-03T15:27:46.577Z,73.07
2018-03-03T15:30:17.520Z,74.33
2018-03-03T15:32:47.160Z,75.50
2018-03-03T15:35:20.125Z,75.30
2018-03-03T15:37:50.174Z,77.87
2018-03-03T15:40:20.824Z,78.13
2018-03-03T15:42:50.969Z,73.70
2018-03-03T15:45:24.080Z,78.43
2018-03-03T15:47:54.463Z,73.67
2018-03-03T15:50:25.921Z,78.90
2018-03-03T15:52:56.425Z,76.53
2018-03-03T15:55:27.584Z,72.30
2018-03-03T15:57:57.656Z,73.10
2018-03-03T16:00:28.714Z,80.97
2018-03-03T16:02:58.433Z,67.67
2018-03-03T16:05:31.367Z,69.23
2018-03-03T16:08:01.194Z,76.60
2018-03-03T16:10:34.415Z,75.80
2018-03-03T16:13:04.068Z,78.77
2018-03-03T16:15:34.561Z,71.10
2018-03-03T16:18:04.769Z,73.83
2018-03-03T16:20:37.974Z,73.40
2018-03-03T16:23:07.708Z,74.37
2018-03-03T16:25:39.499Z,74.10
2018-03-03T16:28:09.918Z,78.93
2018-03-03T16:30:42.652Z,73.53
2018-03-03T16:33:13.461Z,74.23
2018-03-03T16:35:43.907Z,73.43
2018-03-03T16:38:13.709Z,75.10
2018-03-03T16:40:46.467Z,79.60
2018-03-03T16:43:17.046Z,72.03
2018-03-03T16:45:50.215Z,74.13
2018-03-03T16:48:20.279Z,69.43
2018-03-03T16:50:51.628Z,71.30
2018-03-03T16:53:21.436Z,72.27
2018-03-03T16:55:54.464Z,79.53
2018-03-03T16:58:24.912Z,76.03
2018-03-03T17:00:57.768Z,78.57
2018-03-03T17:03:28.694Z,71.70
2018-03-03T17:05:58.857Z,71.50
2018-03-03T17:08:28.849Z,71.07
2018-03-03T17:11:01.933Z,73.47
2018-03-03T17:13:32.234Z,74.17
2018-03-03T17:16:05.113Z,79.17
2018-03-03T17:18:34.858Z,72.10
2018-03-03T17:21:05.926Z,76.23
2018-03-03T17:23:36.068Z,71.87
2018-03-03T17:26:12.979Z,74.13
2018-03-03T17:28:43.508Z,71.57
2018-03-03T17:31:14.539Z,73.13
2018-03-03T17:33:45.024Z,75.47
2018-03-03T17:36:14.765Z,76.03
2018-03-03T17:38:45.492Z,78.53
2018-03-03T17:41:18.457Z,76.90
2018-03-03T17:43:48.729Z,73.77
2018-03-03T17:46:19.906Z,75.93
2018-03-03T17:48:49.700Z,76.83
2018-03-03T17:51:21.480Z,76.67
2018-03-03T17:53:51.090Z,83.07
2018-03-03T17:56:23.125Z,82.23
2018-03-03T17:58:53.689Z,74.93
2018-03-03T18:01:24.171Z,81.10
2018-03-03T18:04:10.934Z,81.80
2018-03-03T18:06:40.814Z,78.40
2018-03-03T18:09:11.046Z,79.10
2018-03-03T18:11:40.832Z,79.80
2018-03-03T18:14:11.350Z,76.37
2018-03-03T18:16:42.141Z,74.43
2018-03-03T18:19:13.204Z,79.10
2018-03-03T18:21:45.940Z,77.97
2018-03-03T18:24:24.770Z,81.53
2018-03-03T18:26:54.678Z,80.60
2018-03-03T18:29:24.306Z,83.80
2018-03-03T18:31:54.016Z,74.60
2018-03-03T18:34:23.741Z,75.00
2018-03-03T18:36:53.303Z,79.60
2018-03-03T18:39:23.047Z,76.53
2018-03-03T18:41:53.124Z,75.43
2018-03-03T18:44:22.950Z,72.40
2018-03-03T18:46:52.607Z,77.27
2018-03-03T18:49:22.511Z,75.73
2018-03-03T18:51:52.114Z,82.03
2018-03-03T18:54:21.778Z,74.93
2018-03-03T18:56:51.737Z,82.43
2018-03-03T18:59:21.463Z,78.80
2018-03-03T19:01:52.332Z,81.20
2018-03-03T19:04:22.546Z,78.73
2018-03-03T19:06:55.683Z,82.77
2018-03-03T19:09:25.433Z,80.93
2018-03-03T19:11:57.832Z,81.90
2018-03-03T19:14:29.726Z,79.67
2018-03-03T19:17:01.540Z,82.53
2018-03-03T19:19:31.377Z,79.27
2018-03-03T19:22:04.168Z,84.07
2018-03-03T19:24:34.337Z,78.57
2018-03-03T19:27:05.658Z,76.77
2018-03-03T19:29:35.446Z,78.07
2018-03-03T19:32:08.531Z,80.57
2018-03-03T19:34:38.232Z,82.90
2018-03-03T19:37:11.870Z,82.50
2018-03-03T19:39:41.858Z,82.00
2018-03-03T19:42:15.282Z,71.90
2018-03-03T19:44:44.969Z,76.97
2018-03-03T19:47:18.797Z,70.03
2018-03-03T19:49:48.461Z,75.17
2018-03-03T19:52:18.080Z,74.53
2018-03-03T19:54:47.936Z,78.23
2018-03-03T19:57:20.996Z,74.33
2018-03-03T19:59:50.629Z,82.87
2018-03-03T20:02:23.126Z,75.07
2018-03-03T20:04:52.774Z,75.60
2018-03-03T20:07:23.336Z,73.73
2018-03-03T20:09:52.987Z,72.13
2018-03-03T20:12:25.682Z,75.07
2018-03-03T20:14:55.297Z,78.40
2018-03-03T20:17:28.544Z,78.63
2018-03-03T20:19:58.678Z,73.20
2018-03-03T20:22:30.453Z,79.17
2018-03-03T20:25:00.016Z,78.33
2018-03-03T20:27:33.301Z,77.40
2018-03-03T20:30:03.781Z,74.77
2018-03-03T20:32:34.894Z,82.00
2018-03-03T20:35:06.107Z,78.63
2018-03-03T20:37:36.643Z,77.57
2018-03-03T20:40:07.039Z,77.50
2018-03-03T20:42:46.268Z,84.97
2018-03-03T20:45:16.018Z,76.57
2018-03-03T20:47:45.738Z,80.57
2018-03-03T20:50:16.641Z,72.97
2018-03-03T20:52:46.262Z,74.00
2018-03-03T20:55:16.724Z,77.50
2018-03-03T20:59:16.889Z,80.97
2018-03-03T21:01:46.454Z,74.63
2018-03-03T21:04:17.438Z,77.80
2018-03-03T21:06:48.945Z,69.43
2018-03-03T21:09:18.564Z,74.20
2018-03-03T21:11:51.510Z,75.70
2018-03-03T21:14:21.959Z,69.23
2018-03-03T21:16:54.722Z,81.90
2018-03-03T21:19:24.630Z,77.30
2018-03-03T21:21:56.423Z,73.60
2018-03-03T21:24:26.057Z,69.50
2018-03-03T21:27:03.452Z,73.77
2018-03-03T21:29:33.183Z,71.80
2018-03-03T21:32:03.532Z,72.77
2018-03-03T21:34:33.157Z,71.60
2018-03-03T21:37:05.930Z,70.80
2018-03-03T21:39:35.687Z,69.47
2018-03-03T21:42:07.198Z,68.73
2018-03-03T21:44:36.883Z,75.27
2018-03-03T21:47:09.998Z,72.87
2018-03-03T21:49:39.904Z,74.57
2018-03-03T21:52:12.965Z,73.93
2018-03-03T21:54:43.540Z,70.70
2018-03-03T21:57:14.852Z,70.90
2018-03-03T21:59:45.371Z,67.63
2018-03-03T22:02:16.571Z,68.13
2018-03-03T22:04:46.414Z,70.83
2018-03-03T22:07:19.559Z,63.17
2018-03-03T22:09:49.683Z,67.17
2018-03-03T22:12:20.175Z,67.83
2018-03-03T22:14:50.033Z,60.07
2018-03-03T22:17:23.486Z,64.50
2018-03-03T22:19:56.098Z,57.07
2018-03-03T22:22:27.561Z,53.63
2018-03-03T22:24:57.621Z,38.60
2018-03-03T22:27:27.394Z,36.70
2018-03-03T22:29:58.087Z,39.37
2018-03-03T22:32:28.906Z,37.17
2018-03-03T22:34:58.681Z,45.10
2018-03-03T22:37:30.627Z,33.57
2018-03-03T22:40:04.838Z,37.47
2018-03-03T22:42:34.629Z,35.83
2018-03-03T22:45:04.499Z,37.80
2018-03-03T22:47:35.393Z,28.77
2018-03-03T22:50:05.437Z,30.53
2018-03-03T22:52:37.950Z,27.73
2018-03-03T22:55:07.944Z,27.50
2018-03-03T22:57:40.150Z,34.43
2018-03-03T23:00:11.232Z,25.60
2018-03-03T23:02:44.344Z,26.73
2018-03-03T23:05:15.706Z,27.83
2018-03-03T23:07:45.591Z,27.17
2018-03-03T23:10:16.453Z,24.17
2018-03-03T23:12:47.718Z,27.43
2018-03-03T23:15:18.499Z,27.63
2018-03-03T23:17:49.560Z,29.13
2018-03-03T23:20:19.945Z,23.33
2018-03-03T23:22:50.428Z,26.27
2018-03-03T23:25:20.634Z,24.10
2018-03-03T23:27:52.289Z,25.07
2018-03-03T23:30:22.195Z,24.63
2018-03-03T23:32:55.512Z,26.30
2018-03-03T23:35:25.533Z,25.60
2018-03-03T23:37:58.850Z,22.97
2018-03-03T23:40:28.517Z,25.90
2018-03-03T23:43:00.254Z,25.57
2018-03-03T23:45:30.255Z,25.57
2018-03-03T23:48:03.431Z,25.83
2018-03-03T23:50:34.134Z,24.83
2018-03-03T23:53:08.737Z,25.50
2018-03-03T23:55:38.730Z,25.60
2018-03-03T23:58:09.142Z,29.33
